sensor_id;sensor_type;location;lat;lon;timestamp;P1;durP1;ratioP1;P2;durP2;ratioP2
48122;SDS011;33907;47.426;18.906;2023-11-21T00:00:14;16.83;;;9.63;;
48122;SDS011;33907;47.426;18.906;2023-11-21T00:02:44;16.45;;;8.70;;
48122;SDS011;33907;47.426;18.906;2023-11-21T00:05:20;15.00;;;9.80;;
48122;SDS011;33907;47.426;18.906;2023-11-21T00:07:50;17.00;;;9.60;;
48122;SDS011;33907;47.426;18.906;2023-11-21T00:10:18;17.30;;;11.20;;
48122;SDS011;33907;47.426;18.906;2023-11-21T00:12:53;14.95;;;10.70;;
48122;SDS011;33907;47.426;18.906;2023-11-21T00:15:23;15.05;;;9.35;;
48122;SDS011;33907;47.426;18.906;2023-11-21T00:17:50;18.33;;;10.27;;
48122;SDS011;33907;47.426;18.906;2023-11-21T00:20:18;16.98;;;8.98;;
48122;SDS011;33907;47.426;18.906;2023-11-21T00:22:47;14.13;;;8.13;;
48122;SDS011;33907;47.426;18.906;2023-11-21T00:25:19;13.85;;;7.65;;
48122;SDS011;33907;47.426;18.906;2023-11-21T00:27:47;14.57;;;7.95;;
48122;SDS011;33907;47.426;18.906;2023-11-21T00:30:15;13.48;;;7.30;;
48122;SDS011;33907;47.426;18.906;2023-11-21T00:35:19;12.23;;;7.70;;
48122;SDS011;33907;47.426;18.906;2023-11-21T00:37:48;12.82;;;7.65;;
48122;SDS011;33907;47.426;18.906;2023-11-21T00:40:17;13.62;;;6.78;;
48122;SDS011;33907;47.426;18.906;2023-11-21T00:42:48;17.10;;;7.65;;
48122;SDS011;33907;47.426;18.906;2023-11-21T00:45:16;11.90;;;7.55;;
48122;SDS011;33907;47.426;18.906;2023-11-21T00:47:44;13.23;;;7.57;;
48122;SDS011;33907;47.426;18.906;2023-11-21T00:50:12;12.20;;;7.15;;
48122;SDS011;33907;47.426;18.906;2023-11-21T00:52:39;15.93;;;7.97;;
48122;SDS011;33907;47.426;18.906;2023-11-21T00:55:08;12.15;;;7.05;;
48122;SDS011;33907;47.426;18.906;2023-11-21T00:57:35;12.30;;;7.50;;
48122;SDS011;33907;47.426;18.906;2023-11-21T01:00:13;13.95;;;7.72;;
48122;SDS011;33907;47.426;18.906;2023-11-21T01:02:44;12.82;;;8.60;;
48122;SDS011;33907;47.426;18.906;2023-11-21T01:05:12;15.52;;;10.82;;
48122;SDS011;33907;47.426;18.906;2023-11-21T01:07:40;14.40;;;10.75;;
48122;SDS011;33907;47.426;18.906;2023-11-21T01:10:08;18.55;;;9.13;;
48122;SDS011;33907;47.426;18.906;2023-11-21T01:12:37;21.77;;;9.98;;
48122;SDS011;33907;47.426;18.906;2023-11-21T01:15:06;19.35;;;11.35;;
48122;SDS011;33907;47.426;18.906;2023-11-21T01:17:39;18.83;;;11.82;;
48122;SDS011;33907;47.426;18.906;2023-11-21T01:20:08;16.87;;;9.85;;
48122;SDS011;33907;47.426;18.906;2023-11-21T01:22:41;15.20;;;10.10;;
48122;SDS011;33907;47.426;18.906;2023-11-21T01:25:08;12.95;;;9.15;;
48122;SDS011;33907;47.426;18.906;2023-11-21T01:27:36;16.27;;;8.93;;
48122;SDS011;33907;47.426;18.906;2023-11-21T01:30:06;14.52;;;8.93;;
48122;SDS011;33907;47.426;18.906;2023-11-21T01:32:38;14.45;;;8.45;;
48122;SDS011;33907;47.426;18.906;2023-11-21T01:35:09;13.80;;;8.70;;
48122;SDS011;33907;47.426;18.906;2023-11-21T01:37:37;13.73;;;8.07;;
48122;SDS011;33907;47.426;18.906;2023-11-21T01:40:05;14.63;;;8.32;;
48122;SDS011;33907;47.426;18.906;2023-11-21T01:42:45;14.98;;;7.75;;
48122;SDS011;33907;47.426;18.906;2023-11-21T01:45:14;14.65;;;8.23;;
48122;SDS011;33907;47.426;18.906;2023-11-21T01:47:42;14.35;;;8.25;;
48122;SDS011;33907;47.426;18.906;2023-11-21T01:50:13;16.87;;;8.30;;
48122;SDS011;33907;47.426;18.906;2023-11-21T01:52:46;14.90;;;7.65;;
48122;SDS011;33907;47.426;18.906;2023-11-21T01:55:16;14.43;;;8.10;;
48122;SDS011;33907;47.426;18.906;2023-11-21T01:58:07;15.30;;;8.35;;
48122;SDS011;33907;47.426;18.906;2023-11-21T02:00:35;14.35;;;7.35;;
48122;SDS011;33907;47.426;18.906;2023-11-21T02:03:19;13.93;;;7.68;;
48122;SDS011;33907;47.426;18.906;2023-11-21T02:05:48;14.40;;;8.77;;
48122;SDS011;33907;47.426;18.906;2023-11-21T02:08:16;16.70;;;8.23;;
48122;SDS011;33907;47.426;18.906;2023-11-21T02:10:43;12.02;;;8.25;;
48122;SDS011;33907;47.426;18.906;2023-11-21T02:13:11;15.10;;;7.57;;
48122;SDS011;33907;47.426;18.906;2023-11-21T02:15:39;12.85;;;7.30;;
48122;SDS011;33907;47.426;18.906;2023-11-21T02:18:08;13.93;;;8.30;;
48122;SDS011;33907;47.426;18.906;2023-11-21T02:20:38;11.98;;;7.85;;
48122;SDS011;33907;47.426;18.906;2023-11-21T02:23:09;14.38;;;8.15;;
48122;SDS011;33907;47.426;18.906;2023-11-21T02:25:36;15.18;;;8.15;;
48122;SDS011;33907;47.426;18.906;2023-11-21T02:28:05;14.57;;;8.20;;
48122;SDS011;33907;47.426;18.906;2023-11-21T02:30:35;15.02;;;8.70;;
48122;SDS011;33907;47.426;18.906;2023-11-21T02:33:04;12.98;;;7.07;;
48122;SDS011;33907;47.426;18.906;2023-11-21T02:35:41;15.93;;;8.57;;
48122;SDS011;33907;47.426;18.906;2023-11-21T02:38:11;13.27;;;7.70;;
48122;SDS011;33907;47.426;18.906;2023-11-21T02:40:38;12.98;;;7.25;;
48122;SDS011;33907;47.426;18.906;2023-11-21T02:43:11;14.38;;;8.55;;
48122;SDS011;33907;47.426;18.906;2023-11-21T02:45:40;12.18;;;8.00;;
48122;SDS011;33907;47.426;18.906;2023-11-21T02:48:13;14.48;;;7.55;;
48122;SDS011;33907;47.426;18.906;2023-11-21T02:50:41;14.68;;;7.62;;
48122;SDS011;33907;47.426;18.906;2023-11-21T02:53:10;13.00;;;7.10;;
48122;SDS011;33907;47.426;18.906;2023-11-21T02:55:38;13.00;;;6.95;;
48122;SDS011;33907;47.426;18.906;2023-11-21T02:58:25;11.30;;;7.12;;
48122;SDS011;33907;47.426;18.906;2023-11-21T03:00:53;14.43;;;8.02;;
48122;SDS011;33907;47.426;18.906;2023-11-21T03:03:21;10.43;;;7.20;;
48122;SDS011;33907;47.426;18.906;2023-11-21T03:05:59;12.85;;;6.55;;
48122;SDS011;33907;47.426;18.906;2023-11-21T03:08:26;14.50;;;7.57;;
48122;SDS011;33907;47.426;18.906;2023-11-21T03:10:54;14.25;;;7.57;;
48122;SDS011;33907;47.426;18.906;2023-11-21T03:13:22;12.82;;;7.43;;
48122;SDS011;33907;47.426;18.906;2023-11-21T03:15:50;14.20;;;7.62;;
48122;SDS011;33907;47.426;18.906;2023-11-21T03:18:18;12.80;;;7.60;;
48122;SDS011;33907;47.426;18.906;2023-11-21T03:20:46;12.52;;;7.12;;
48122;SDS011;33907;47.426;18.906;2023-11-21T03:23:14;12.37;;;7.50;;
48122;SDS011;33907;47.426;18.906;2023-11-21T03:25:42;10.88;;;6.55;;
48122;SDS011;33907;47.426;18.906;2023-11-21T03:28:10;16.08;;;7.60;;
48122;SDS011;33907;47.426;18.906;2023-11-21T03:30:38;13.15;;;6.82;;
48122;SDS011;33907;47.426;18.906;2023-11-21T03:33:05;14.93;;;7.15;;
48122;SDS011;33907;47.426;18.906;2023-11-21T03:35:43;11.45;;;7.03;;
48122;SDS011;33907;47.426;18.906;2023-11-21T03:38:11;15.27;;;7.90;;
48122;SDS011;33907;47.426;18.906;2023-11-21T03:40:39;15.45;;;7.28;;
48122;SDS011;33907;47.426;18.906;2023-11-21T03:43:15;12.20;;;7.85;;
48122;SDS011;33907;47.426;18.906;2023-11-21T03:45:43;13.35;;;6.90;;
48122;SDS011;33907;47.426;18.906;2023-11-21T03:48:12;11.23;;;6.62;;
48122;SDS011;33907;47.426;18.906;2023-11-21T03:50:40;12.30;;;7.28;;
48122;SDS011;33907;47.426;18.906;2023-11-21T03:53:07;15.45;;;7.25;;
48122;SDS011;33907;47.426;18.906;2023-11-21T03:55:35;13.95;;;7.60;;
48122;SDS011;33907;47.426;18.906;2023-11-21T03:58:11;9.90;;;6.22;;
48122;SDS011;33907;47.426;18.906;2023-11-21T04:00:39;13.55;;;6.60;;
48122;SDS011;33907;47.426;18.906;2023-11-21T04:03:06;15.02;;;6.25;;
48122;SDS011;33907;47.426;18.906;2023-11-21T04:05:34;10.55;;;5.47;;
48122;SDS011;33907;47.426;18.906;2023-11-21T04:08:02;11.68;;;6.40;;
48122;SDS011;33907;47.426;18.906;2023-11-21T04:10:30;10.45;;;6.10;;
48122;SDS011;33907;47.426;18.906;2023-11-21T04:12:57;12.65;;;5.53;;
48122;SDS011;33907;47.426;18.906;2023-11-21T04:15:25;9.55;;;5.68;;
48122;SDS011;33907;47.426;18.906;2023-11-21T04:17:53;10.77;;;5.55;;
48122;SDS011;33907;47.426;18.906;2023-11-21T04:20:21;11.95;;;5.10;;
48122;SDS011;33907;47.426;18.906;2023-11-21T04:22:50;11.65;;;4.95;;
48122;SDS011;33907;47.426;18.906;2023-11-21T04:25:18;10.65;;;4.55;;
48122;SDS011;33907;47.426;18.906;2023-11-21T04:27:46;8.75;;;5.00;;
48122;SDS011;33907;47.426;18.906;2023-11-21T04:30:13;10.63;;;4.53;;
48122;SDS011;33907;47.426;18.906;2023-11-21T04:32:42;11.23;;;4.90;;
48122;SDS011;33907;47.426;18.906;2023-11-21T04:35:10;13.88;;;5.03;;
48122;SDS011;33907;47.426;18.906;2023-11-21T04:37:38;10.90;;;5.10;;
48122;SDS011;33907;47.426;18.906;2023-11-21T04:40:06;10.27;;;4.90;;
48122;SDS011;33907;47.426;18.906;2023-11-21T04:42:34;13.20;;;4.60;;
48122;SDS011;33907;47.426;18.906;2023-11-21T04:45:06;8.50;;;4.53;;
48122;SDS011;33907;47.426;18.906;2023-11-21T04:47:48;9.63;;;4.18;;
48122;SDS011;33907;47.426;18.906;2023-11-21T04:50:32;8.13;;;3.37;;
48122;SDS011;33907;47.426;18.906;2023-11-21T04:52:59;9.05;;;3.35;;
48122;SDS011;33907;47.426;18.906;2023-11-21T04:55:27;7.90;;;3.20;;
48122;SDS011;33907;47.426;18.906;2023-11-21T04:57:57;10.70;;;3.72;;
48122;SDS011;33907;47.426;18.906;2023-11-21T05:00:25;9.48;;;3.37;;
48122;SDS011;33907;47.426;18.906;2023-11-21T05:02:52;9.23;;;3.25;;
48122;SDS011;33907;47.426;18.906;2023-11-21T05:05:20;9.10;;;3.28;;
48122;SDS011;33907;47.426;18.906;2023-11-21T05:07:48;8.50;;;3.15;;
48122;SDS011;33907;47.426;18.906;2023-11-21T05:10:16;6.53;;;2.90;;
48122;SDS011;33907;47.426;18.906;2023-11-21T05:12:43;6.55;;;3.00;;
48122;SDS011;33907;47.426;18.906;2023-11-21T05:15:13;8.88;;;3.05;;
48122;SDS011;33907;47.426;18.906;2023-11-21T05:17:41;8.48;;;3.35;;
48122;SDS011;33907;47.426;18.906;2023-11-21T05:20:11;10.48;;;3.00;;
48122;SDS011;33907;47.426;18.906;2023-11-21T05:22:41;7.25;;;3.10;;
48122;SDS011;33907;47.426;18.906;2023-11-21T05:25:09;9.70;;;3.37;;
48122;SDS011;33907;47.426;18.906;2023-11-21T05:27:38;9.65;;;3.30;;
48122;SDS011;33907;47.426;18.906;2023-11-21T05:30:06;8.23;;;2.95;;
48122;SDS011;33907;47.426;18.906;2023-11-21T05:32:35;11.32;;;3.33;;
48122;SDS011;33907;47.426;18.906;2023-11-21T05:35:03;6.05;;;2.78;;
48122;SDS011;33907;47.426;18.906;2023-11-21T05:37:31;5.47;;;2.92;;
48122;SDS011;33907;47.426;18.906;2023-11-21T05:39:59;9.55;;;4.05;;
48122;SDS011;33907;47.426;18.906;2023-11-21T05:42:36;11.63;;;3.28;;
48122;SDS011;33907;47.426;18.906;2023-11-21T05:45:07;9.90;;;3.47;;
48122;SDS011;33907;47.426;18.906;2023-11-21T05:47:41;8.32;;;3.30;;
48122;SDS011;33907;47.426;18.906;2023-11-21T05:50:10;9.88;;;3.37;;
48122;SDS011;33907;47.426;18.906;2023-11-21T05:52:40;9.73;;;3.67;;
48122;SDS011;33907;47.426;18.906;2023-11-21T05:55:12;7.60;;;3.03;;
48122;SDS011;33907;47.426;18.906;2023-11-21T05:57:41;9.27;;;4.05;;
48122;SDS011;33907;47.426;18.906;2023-11-21T06:00:15;8.82;;;3.58;;
48122;SDS011;33907;47.426;18.906;2023-11-21T06:02:49;7.68;;;3.40;;
48122;SDS011;33907;47.426;18.906;2023-11-21T06:05:26;10.10;;;3.75;;
48122;SDS011;33907;47.426;18.906;2023-11-21T06:07:54;9.68;;;3.67;;
48122;SDS011;33907;47.426;18.906;2023-11-21T06:10:26;13.85;;;4.28;;
48122;SDS011;33907;47.426;18.906;2023-11-21T06:12:56;10.02;;;3.65;;
48122;SDS011;33907;47.426;18.906;2023-11-21T06:15:29;8.63;;;3.60;;
48122;SDS011;33907;47.426;18.906;2023-11-21T06:17:57;10.57;;;4.65;;
48122;SDS011;33907;47.426;18.906;2023-11-21T06:20:26;8.63;;;3.37;;
48122;SDS011;33907;47.426;18.906;2023-11-21T06:22:54;13.05;;;4.03;;
48122;SDS011;33907;47.426;18.906;2023-11-21T06:25:22;12.25;;;5.78;;
48122;SDS011;33907;47.426;18.906;2023-11-21T06:27:50;10.02;;;5.65;;
48122;SDS011;33907;47.426;18.906;2023-11-21T06:30:19;16.37;;;7.72;;
48122;SDS011;33907;47.426;18.906;2023-11-21T06:32:47;15.15;;;7.70;;
48122;SDS011;33907;47.426;18.906;2023-11-21T06:35:15;15.32;;;8.90;;
48122;SDS011;33907;47.426;18.906;2023-11-21T06:37:44;18.52;;;9.38;;
48122;SDS011;33907;47.426;18.906;2023-11-21T06:40:18;19.08;;;9.75;;
48122;SDS011;33907;47.426;18.906;2023-11-21T06:43:06;16.25;;;9.07;;
48122;SDS011;33907;47.426;18.906;2023-11-21T06:45:34;17.85;;;9.27;;
48122;SDS011;33907;47.426;18.906;2023-11-21T06:48:02;15.38;;;9.27;;
48122;SDS011;33907;47.426;18.906;2023-11-21T06:50:30;20.48;;;9.65;;
48122;SDS011;33907;47.426;18.906;2023-11-21T06:52:58;16.48;;;9.05;;
48122;SDS011;33907;47.426;18.906;2023-11-21T06:55:26;16.60;;;8.88;;
48122;SDS011;33907;47.426;18.906;2023-11-21T06:57:53;14.20;;;9.90;;
48122;SDS011;33907;47.426;18.906;2023-11-21T07:00:21;13.68;;;8.82;;
48122;SDS011;33907;47.426;18.906;2023-11-21T07:02:48;12.88;;;8.48;;
48122;SDS011;33907;47.426;18.906;2023-11-21T07:05:16;13.75;;;8.10;;
48122;SDS011;33907;47.426;18.906;2023-11-21T07:07:48;14.30;;;7.60;;
48122;SDS011;33907;47.426;18.906;2023-11-21T07:10:17;13.07;;;6.95;;
48122;SDS011;33907;47.426;18.906;2023-11-21T07:12:44;11.30;;;7.25;;
48122;SDS011;33907;47.426;18.906;2023-11-21T07:15:12;10.90;;;6.82;;
48122;SDS011;33907;47.426;18.906;2023-11-21T07:17:39;10.73;;;6.50;;
48122;SDS011;33907;47.426;18.906;2023-11-21T07:20:08;12.90;;;6.28;;
48122;SDS011;33907;47.426;18.906;2023-11-21T07:22:36;12.23;;;6.07;;
48122;SDS011;33907;47.426;18.906;2023-11-21T07:25:04;11.77;;;5.90;;
48122;SDS011;33907;47.426;18.906;2023-11-21T07:27:32;11.90;;;5.62;;
48122;SDS011;33907;47.426;18.906;2023-11-21T07:30:03;10.68;;;5.93;;
48122;SDS011;33907;47.426;18.906;2023-11-21T07:32:32;13.55;;;6.12;;
48122;SDS011;33907;47.426;18.906;2023-11-21T07:34:59;12.05;;;5.72;;
48122;SDS011;33907;47.426;18.906;2023-11-21T07:37:28;11.98;;;5.37;;
48122;SDS011;33907;47.426;18.906;2023-11-21T07:39:56;10.10;;;4.80;;
48122;SDS011;33907;47.426;18.906;2023-11-21T07:42:23;8.70;;;4.68;;
48122;SDS011;33907;47.426;18.906;2023-11-21T07:44:53;8.30;;;4.05;;
48122;SDS011;33907;47.426;18.906;2023-11-21T07:47:21;12.18;;;4.40;;
48122;SDS011;33907;47.426;18.906;2023-11-21T07:49:48;11.10;;;4.50;;
48122;SDS011;33907;47.426;18.906;2023-11-21T07:52:16;8.57;;;4.45;;
48122;SDS011;33907;47.426;18.906;2023-11-21T07:54:43;10.63;;;4.45;;
48122;SDS011;33907;47.426;18.906;2023-11-21T07:57:11;10.10;;;4.50;;
48122;SDS011;33907;47.426;18.906;2023-11-21T07:59:40;14.65;;;5.85;;
48122;SDS011;33907;47.426;18.906;2023-11-21T08:02:08;12.20;;;5.50;;
48122;SDS011;33907;47.426;18.906;2023-11-21T08:04:36;11.73;;;4.82;;
48122;SDS011;33907;47.426;18.906;2023-11-21T08:07:03;10.02;;;4.93;;
48122;SDS011;33907;47.426;18.906;2023-11-21T08:09:31;10.38;;;4.70;;
48122;SDS011;33907;47.426;18.906;2023-11-21T08:11:59;9.10;;;4.65;;
48122;SDS011;33907;47.426;18.906;2023-11-21T08:14:27;8.90;;;4.55;;
48122;SDS011;33907;47.426;18.906;2023-11-21T08:16:55;8.63;;;4.60;;
48122;SDS011;33907;47.426;18.906;2023-11-21T08:19:25;7.45;;;4.15;;
48122;SDS011;33907;47.426;18.906;2023-11-21T08:21:53;9.98;;;4.72;;
48122;SDS011;33907;47.426;18.906;2023-11-21T08:24:21;9.95;;;5.60;;
48122;SDS011;33907;47.426;18.906;2023-11-21T08:26:49;12.55;;;5.53;;
48122;SDS011;33907;47.426;18.906;2023-11-21T08:29:17;13.48;;;6.97;;
48122;SDS011;33907;47.426;18.906;2023-11-21T08:31:45;17.12;;;11.30;;
48122;SDS011;33907;47.426;18.906;2023-11-21T08:34:14;15.13;;;10.48;;
48122;SDS011;33907;47.426;18.906;2023-11-21T08:36:42;14.05;;;9.07;;
48122;SDS011;33907;47.426;18.906;2023-11-21T08:39:10;14.80;;;7.87;;
48122;SDS011;33907;47.426;18.906;2023-11-21T08:41:38;11.30;;;6.45;;
48122;SDS011;33907;47.426;18.906;2023-11-21T08:44:05;12.85;;;5.85;;
48122;SDS011;33907;47.426;18.906;2023-11-21T08:46:34;12.37;;;6.07;;
48122;SDS011;33907;47.426;18.906;2023-11-21T08:49:04;12.82;;;7.10;;
48122;SDS011;33907;47.426;18.906;2023-11-21T08:51:31;11.00;;;6.70;;
48122;SDS011;33907;47.426;18.906;2023-11-21T08:53:59;11.85;;;7.18;;
48122;SDS011;33907;47.426;18.906;2023-11-21T08:56:28;13.65;;;7.70;;
48122;SDS011;33907;47.426;18.906;2023-11-21T08:58:56;14.15;;;8.25;;
48122;SDS011;33907;47.426;18.906;2023-11-21T09:01:24;11.75;;;7.32;;
48122;SDS011;33907;47.426;18.906;2023-11-21T09:03:52;15.65;;;7.25;;
48122;SDS011;33907;47.426;18.906;2023-11-21T09:06:20;12.40;;;7.87;;
48122;SDS011;33907;47.426;18.906;2023-11-21T09:08:47;13.65;;;7.68;;
48122;SDS011;33907;47.426;18.906;2023-11-21T09:11:15;16.70;;;8.88;;
48122;SDS011;33907;47.426;18.906;2023-11-21T09:13:42;13.65;;;8.60;;
48122;SDS011;33907;47.426;18.906;2023-11-21T09:16:10;18.58;;;8.70;;
48122;SDS011;33907;47.426;18.906;2023-11-21T09:18:38;16.75;;;8.88;;
48122;SDS011;33907;47.426;18.906;2023-11-21T09:21:06;18.12;;;9.13;;
48122;SDS011;33907;47.426;18.906;2023-11-21T09:23:35;16.90;;;8.70;;
48122;SDS011;33907;47.426;18.906;2023-11-21T09:26:03;14.65;;;8.07;;
48122;SDS011;33907;47.426;18.906;2023-11-21T09:28:32;18.05;;;8.25;;
48122;SDS011;33907;47.426;18.906;2023-11-21T09:30:59;17.12;;;7.75;;
48122;SDS011;33907;47.426;18.906;2023-11-21T09:33:30;20.58;;;8.40;;
48122;SDS011;33907;47.426;18.906;2023-11-21T09:35:58;19.92;;;8.55;;
48122;SDS011;33907;47.426;18.906;2023-11-21T09:38:25;13.93;;;8.27;;
48122;SDS011;33907;47.426;18.906;2023-11-21T09:40:56;14.02;;;8.13;;
48122;SDS011;33907;47.426;18.906;2023-11-21T09:43:25;14.35;;;8.30;;
48122;SDS011;33907;47.426;18.906;2023-11-21T09:45:56;16.50;;;8.68;;
48122;SDS011;33907;47.426;18.906;2023-11-21T09:48:27;15.85;;;8.70;;
48122;SDS011;33907;47.426;18.906;2023-11-21T09:50:56;16.23;;;8.82;;
48122;SDS011;33907;47.426;18.906;2023-11-21T09:53:24;16.42;;;9.23;;
48122;SDS011;33907;47.426;18.906;2023-11-21T09:55:54;15.00;;;9.13;;
48122;SDS011;33907;47.426;18.906;2023-11-21T09:58:22;13.40;;;8.43;;
48122;SDS011;33907;47.426;18.906;2023-11-21T10:00:53;13.55;;;8.85;;
48122;SDS011;33907;47.426;18.906;2023-11-21T10:03:21;16.83;;;9.30;;
48122;SDS011;33907;47.426;18.906;2023-11-21T10:05:50;14.25;;;8.32;;
48122;SDS011;33907;47.426;18.906;2023-11-21T10:08:17;20.33;;;11.95;;
48122;SDS011;33907;47.426;18.906;2023-11-21T10:10:49;23.17;;;15.43;;
48122;SDS011;33907;47.426;18.906;2023-11-21T10:13:18;19.10;;;12.15;;
48122;SDS011;33907;47.426;18.906;2023-11-21T10:15:50;22.50;;;13.85;;
48122;SDS011;33907;47.426;18.906;2023-11-21T10:18:19;17.40;;;11.48;;
48122;SDS011;33907;47.426;18.906;2023-11-21T10:20:46;19.15;;;10.73;;
48122;SDS011;33907;47.426;18.906;2023-11-21T10:23:21;15.65;;;7.18;;
48122;SDS011;33907;47.426;18.906;2023-11-21T10:25:51;15.00;;;7.05;;
48122;SDS011;33907;47.426;18.906;2023-11-21T10:28:20;12.65;;;7.53;;
48122;SDS011;33907;47.426;18.906;2023-11-21T10:30:48;12.68;;;6.10;;
48122;SDS011;33907;47.426;18.906;2023-11-21T10:33:16;10.88;;;5.95;;
48122;SDS011;33907;47.426;18.906;2023-11-21T10:35:45;13.10;;;6.75;;
48122;SDS011;33907;47.426;18.906;2023-11-21T10:38:22;11.98;;;6.25;;
48122;SDS011;33907;47.426;18.906;2023-11-21T10:40:51;11.05;;;6.22;;
48122;SDS011;33907;47.426;18.906;2023-11-21T10:43:19;9.52;;;4.85;;
48122;SDS011;33907;47.426;18.906;2023-11-21T10:45:47;12.27;;;5.62;;
48122;SDS011;33907;47.426;18.906;2023-11-21T10:48:15;9.80;;;3.90;;
48122;SDS011;33907;47.426;18.906;2023-11-21T10:50:46;8.77;;;3.80;;
48122;SDS011;33907;47.426;18.906;2023-11-21T10:53:14;8.10;;;3.55;;
48122;SDS011;33907;47.426;18.906;2023-11-21T10:55:42;8.27;;;3.53;;
48122;SDS011;33907;47.426;18.906;2023-11-21T10:58:13;7.82;;;3.75;;
48122;SDS011;33907;47.426;18.906;2023-11-21T11:00:41;8.10;;;3.65;;
48122;SDS011;33907;47.426;18.906;2023-11-21T11:03:12;10.35;;;3.95;;
48122;SDS011;33907;47.426;18.906;2023-11-21T11:05:43;8.45;;;3.55;;
48122;SDS011;33907;47.426;18.906;2023-11-21T11:08:22;11.02;;;3.70;;
48122;SDS011;33907;47.426;18.906;2023-11-21T11:10:54;8.35;;;3.12;;
48122;SDS011;33907;47.426;18.906;2023-11-21T11:13:23;6.65;;;3.40;;
48122;SDS011;33907;47.426;18.906;2023-11-21T11:15:53;8.73;;;3.35;;
48122;SDS011;33907;47.426;18.906;2023-11-21T11:18:29;8.57;;;3.37;;
48122;SDS011;33907;47.426;18.906;2023-11-21T11:21:42;9.40;;;3.17;;
48122;SDS011;33907;47.426;18.906;2023-11-21T11:23:58;6.90;;;2.83;;
48122;SDS011;33907;47.426;18.906;2023-11-21T11:26:44;8.23;;;3.42;;
48122;SDS011;33907;47.426;18.906;2023-11-21T11:34:44;9.05;;;3.35;;
48122;SDS011;33907;47.426;18.906;2023-11-21T11:37:14;8.80;;;3.33;;
48122;SDS011;33907;47.426;18.906;2023-11-21T11:39:42;10.20;;;4.22;;
48122;SDS011;33907;47.426;18.906;2023-11-21T11:42:14;9.10;;;4.18;;
48122;SDS011;33907;47.426;18.906;2023-11-21T11:47:15;8.45;;;3.72;;
48122;SDS011;33907;47.426;18.906;2023-11-21T11:49:56;9.20;;;3.85;;
48122;SDS011;33907;47.426;18.906;2023-11-21T11:52:37;11.88;;;5.15;;
48122;SDS011;33907;47.426;18.906;2023-11-21T11:55:11;11.40;;;5.00;;
48122;SDS011;33907;47.426;18.906;2023-11-21T11:57:46;9.35;;;5.68;;
48122;SDS011;33907;47.426;18.906;2023-11-21T12:00:21;12.20;;;6.00;;
48122;SDS011;33907;47.426;18.906;2023-11-21T12:02:59;8.88;;;4.87;;
48122;SDS011;33907;47.426;18.906;2023-11-21T12:05:31;10.68;;;3.90;;
48122;SDS011;33907;47.426;18.906;2023-11-21T12:08:01;10.75;;;4.12;;
48122;SDS011;33907;47.426;18.906;2023-11-21T12:10:31;8.52;;;3.78;;
48122;SDS011;33907;47.426;18.906;2023-11-21T12:13:02;8.43;;;3.67;;
48122;SDS011;33907;47.426;18.906;2023-11-21T12:15:34;9.20;;;3.53;;
48122;SDS011;33907;47.426;18.906;2023-11-21T12:18:04;6.28;;;3.50;;
48122;SDS011;33907;47.426;18.906;2023-11-21T12:20:32;9.02;;;3.60;;
48122;SDS011;33907;47.426;18.906;2023-11-21T12:23:05;8.27;;;3.92;;
48122;SDS011;33907;47.426;18.906;2023-11-21T12:25:33;9.60;;;4.15;;
48122;SDS011;33907;47.426;18.906;2023-11-21T12:28:01;8.38;;;3.50;;
48122;SDS011;33907;47.426;18.906;2023-11-21T12:30:31;6.95;;;3.15;;
48122;SDS011;33907;47.426;18.906;2023-11-21T12:33:00;9.05;;;3.50;;
48122;SDS011;33907;47.426;18.906;2023-11-21T12:35:34;8.73;;;4.12;;
48122;SDS011;33907;47.426;18.906;2023-11-21T12:38:02;10.05;;;3.78;;
48122;SDS011;33907;47.426;18.906;2023-11-21T12:40:31;11.23;;;3.90;;
48122;SDS011;33907;47.426;18.906;2023-11-21T12:42:59;8.90;;;3.60;;
48122;SDS011;33907;47.426;18.906;2023-11-21T12:45:29;10.18;;;4.00;;
48122;SDS011;33907;47.426;18.906;2023-11-21T12:48:04;8.27;;;3.60;;
48122;SDS011;33907;47.426;18.906;2023-11-21T12:50:38;8.82;;;4.03;;
48122;SDS011;33907;47.426;18.906;2023-11-21T12:53:07;8.57;;;3.70;;
48122;SDS011;33907;47.426;18.906;2023-11-21T12:55:37;11.23;;;4.07;;
48122;SDS011;33907;47.426;18.906;2023-11-21T12:58:06;11.90;;;4.28;;
48122;SDS011;33907;47.426;18.906;2023-11-21T13:00:39;12.07;;;4.70;;
48122;SDS011;33907;47.426;18.906;2023-11-21T13:03:12;8.95;;;5.00;;
48122;SDS011;33907;47.426;18.906;2023-11-21T13:05:45;11.48;;;6.03;;
48122;SDS011;33907;47.426;18.906;2023-11-21T13:08:20;11.43;;;5.53;;
48122;SDS011;33907;47.426;18.906;2023-11-21T13:10:51;11.80;;;5.85;;
48122;SDS011;33907;47.426;18.906;2023-11-21T13:13:21;11.45;;;6.20;;
48122;SDS011;33907;47.426;18.906;2023-11-21T13:15:52;13.15;;;6.22;;
48122;SDS011;33907;47.426;18.906;2023-11-21T13:18:24;17.27;;;9.07;;
48122;SDS011;33907;47.426;18.906;2023-11-21T13:20:55;17.37;;;8.55;;
48122;SDS011;33907;47.426;18.906;2023-11-21T13:23:24;18.70;;;9.95;;
48122;SDS011;33907;47.426;18.906;2023-11-21T13:25:55;13.07;;;7.78;;
48122;SDS011;33907;47.426;18.906;2023-11-21T13:28:32;14.85;;;7.78;;
48122;SDS011;33907;47.426;18.906;2023-11-21T13:31:01;17.23;;;7.40;;
48122;SDS011;33907;47.426;18.906;2023-11-21T13:33:50;17.48;;;9.23;;
48122;SDS011;33907;47.426;18.906;2023-11-21T13:36:26;21.73;;;12.20;;
48122;SDS011;33907;47.426;18.906;2023-11-21T13:38:58;30.15;;;20.40;;
48122;SDS011;33907;47.426;18.906;2023-11-21T13:41:26;32.75;;;23.70;;
48122;SDS011;33907;47.426;18.906;2023-11-21T13:43:59;21.33;;;13.10;;
48122;SDS011;33907;47.426;18.906;2023-11-21T13:46:54;21.58;;;12.88;;
48122;SDS011;33907;47.426;18.906;2023-11-21T13:49:24;17.02;;;10.45;;
48122;SDS011;33907;47.426;18.906;2023-11-21T13:51:53;18.60;;;12.00;;
48122;SDS011;33907;47.426;18.906;2023-11-21T13:54:22;16.12;;;11.82;;
48122;SDS011;33907;47.426;18.906;2023-11-21T13:56:53;21.15;;;12.30;;
48122;SDS011;33907;47.426;18.906;2023-11-21T13:59:22;18.25;;;11.65;;
48122;SDS011;33907;47.426;18.906;2023-11-21T14:01:57;17.70;;;10.98;;
48122;SDS011;33907;47.426;18.906;2023-11-21T14:04:28;16.92;;;10.63;;
48122;SDS011;33907;47.426;18.906;2023-11-21T14:07:06;17.73;;;9.68;;
48122;SDS011;33907;47.426;18.906;2023-11-21T14:09:52;19.08;;;10.45;;
48122;SDS011;33907;47.426;18.906;2023-11-21T14:12:20;17.62;;;10.48;;
48122;SDS011;33907;47.426;18.906;2023-11-21T14:14:48;16.27;;;9.55;;
48122;SDS011;33907;47.426;18.906;2023-11-21T14:17:17;16.33;;;8.57;;
48122;SDS011;33907;47.426;18.906;2023-11-21T14:19:44;19.12;;;10.07;;
48122;SDS011;33907;47.426;18.906;2023-11-21T14:22:12;17.12;;;10.52;;
48122;SDS011;33907;47.426;18.906;2023-11-21T14:24:40;17.15;;;9.27;;
48122;SDS011;33907;47.426;18.906;2023-11-21T14:27:13;13.88;;;8.82;;
48122;SDS011;33907;47.426;18.906;2023-11-21T14:29:42;16.62;;;9.52;;
48122;SDS011;33907;47.426;18.906;2023-11-21T14:32:12;14.18;;;8.32;;
48122;SDS011;33907;47.426;18.906;2023-11-21T14:34:43;16.27;;;8.32;;
48122;SDS011;33907;47.426;18.906;2023-11-21T14:37:14;14.55;;;9.13;;
48122;SDS011;33907;47.426;18.906;2023-11-21T14:39:42;18.80;;;11.65;;
48122;SDS011;33907;47.426;18.906;2023-11-21T14:42:13;15.65;;;10.18;;
48122;SDS011;33907;47.426;18.906;2023-11-21T14:44:42;15.05;;;10.15;;
48122;SDS011;33907;47.426;18.906;2023-11-21T14:47:12;16.60;;;9.38;;
48122;SDS011;33907;47.426;18.906;2023-11-21T14:49:43;15.88;;;9.00;;